Time;durP1;ratioP1;P1;durP2;ratioP2;P2;SDS_P1;SDS_P2;PMS_P1;PMS_P2;Temp;Humidity;BMP_temperature;BMP_pressure;BME280_temperature;BME280_humidity;BME280_pressure;Samples;Min_cycle;Max_cycle;Signal;HPM_P1;HPM_P2
2023/06/15 00:02:16;;;;;;;3.28;2.55;;;;;;;17.03;47.72;101196.72;4997254;28;20046;-79
2023/06/15 00:04:42;;;;;;;6.10;2.97;;;;;;;17.02;47.69;101197.63;5009892;28;20038;-87
2023/06/15 00:07:09;;;;;;;3.92;2.75;;;;;;;17.01;47.56;101196.75;4986818;28;20137;-79
2023/06/15 00:09:36;;;;;;;2.47;2.15;;;;;;;16.99;47.74;101197.72;5006844;28;20100;-82
2023/06/15 00:12:03;;;;;;;3.25;2.10;;;;;;;16.96;47.80;101195.13;4989271;28;20053;-86
2023/06/15 00:14:29;;;;;;;4.45;2.30;;;;;;;16.91;47.81;101197.91;4974190;28;20049;-79
2023/06/15 00:16:57;;;;;;;3.28;2.75;;;;;;;16.88;47.75;101197.94;4988996;28;20038;-83
2023/06/15 00:19:24;;;;;;;4.15;3.00;;;;;;;16.87;48.18;101199.72;4986703;28;20129;-82
2023/06/15 00:21:53;;;;;;;4.55;2.60;;;;;;;16.83;47.93;101197.19;4987456;28;20497;-82
2023/06/15 00:24:20;;;;;;;4.10;2.90;;;;;;;16.79;48.54;101198.19;5007910;28;20042;-80
2023/06/15 00:26:46;;;;;;;2.72;2.53;;;;;;;16.76;48.46;101199.13;4977787;28;20042;-84
2023/06/15 00:29:13;;;;;;;5.10;2.58;;;;;;;16.72;48.71;101197.47;4989413;28;20053;-78
2023/06/15 00:31:41;;;;;;;8.02;3.10;;;;;;;16.66;48.52;101198.53;5004414;28;20061;-84
2023/06/15 00:34:07;;;;;;;7.03;3.05;;;;;;;16.62;48.67;101201.28;4971687;28;20046;-79
2023/06/15 00:36:33;;;;;;;3.00;2.53;;;;;;;16.57;48.80;101205.81;4991055;28;20045;-83
2023/06/15 00:39:00;;;;;;;4.05;2.85;;;;;;;16.51;48.96;101204.19;4976693;28;20054;-92
2023/06/15 00:41:26;;;;;;;5.80;2.35;;;;;;;16.43;49.07;101196.44;4982596;28;20034;-79
2023/06/15 00:43:53;;;;;;;8.57;3.30;;;;;;;16.39;49.16;101200.06;4990957;28;20065;-81
2023/06/15 00:46:20;;;;;;;2.92;2.60;;;;;;;16.34;49.09;101199.31;4982156;28;20054;-79
2023/06/15 00:48:47;;;;;;;4.43;2.70;;;;;;;16.26;49.58;101196.00;4990295;28;20781;-85
2023/06/15 00:51:14;;;;;;;3.25;2.60;;;;;;;16.24;49.46;101200.44;4983000;28;20058;-85
2023/06/15 00:53:43;;;;;;;3.10;2.78;;;;;;;16.17;49.63;101200.59;4985348;28;20050;-85
2023/06/15 00:56:10;;;;;;;3.50;2.55;;;;;;;16.15;49.74;101197.13;4985009;28;20101;-79
2023/06/15 00:58:37;;;;;;;3.75;3.00;;;;;;;16.11;49.71;101197.22;4988998;28;20042;-81
2023/06/15 01:01:03;;;;;;;5.15;2.67;;;;;;;16.08;50.02;101197.31;4986783;28;20576;-82
2023/06/15 01:03:31;;;;;;;5.30;2.55;;;;;;;16.04;50.04;101197.34;4989654;28;20039;-81
2023/06/15 01:05:58;;;;;;;4.85;2.78;;;;;;;15.98;50.12;101199.28;4985912;28;20511;-80
2023/06/15 01:08:27;;;;;;;4.30;2.65;;;;;;;15.90;50.46;101202.09;4987162;28;21571;-79
2023/06/15 01:10:56;;;;;;;7.53;2.83;;;;;;;15.86;50.97;101201.28;4998885;28;20481;-80
2023/06/15 01:13:22;;;;;;;4.10;2.58;;;;;;;15.84;50.54;101197.81;4985657;28;20097;-82
2023/06/15 01:15:54;;;;;;;2.55;2.35;;;;;;;15.80;50.87;101195.22;4995601;28;20050;-80
2023/06/15 01:18:22;;;;;;;3.33;2.97;;;;;;;15.75;50.95;101192.72;4994233;28;20146;-79
2023/06/15 01:20:53;;;;;;;6.22;2.47;;;;;;;15.70;51.16;101199.84;4984511;28;20042;-80
2023/06/15 01:23:50;;;;;;;3.47;3.00;;;;;;;15.71;51.55;101199.81;4986528;28;20049;-79
2023/06/15 01:26:20;;;;;;;2.33;2.13;;;;;;;15.67;51.15;101195.53;4972153;28;20560;-83
2023/06/15 01:28:49;;;;;;;3.13;2.83;;;;;;;15.67;51.21;101192.00;4971370;28;20762;-82
2023/06/15 01:31:18;;;;;;;5.22;2.90;;;;;;;15.64;51.60;101192.91;4986829;28;20038;-80
2023/06/15 01:33:52;;;;;;;2.83;2.58;;;;;;;15.63;51.80;101193.84;4986349;28;20061;-83
2023/06/15 01:36:20;;;;;;;3.60;3.08;;;;;;;15.62;51.75;101192.09;4985477;28;20043;-79
2023/06/15 01:38:50;;;;;;;3.30;2.72;;;;;;;15.63;51.83;101192.97;4989475;28;20065;-78
2023/06/15 01:41:23;;;;;;;3.65;3.35;;;;;;;15.58;51.58;101190.44;4967263;28;20050;-79
2023/06/15 01:43:50;;;;;;;3.55;2.80;;;;;;;15.54;51.68;101194.06;4979848;28;20169;-80
2023/06/15 01:46:18;;;;;;;3.50;3.17;;;;;;;15.52;51.94;101196.69;4986047;28;20054;-79
2023/06/15 01:48:45;;;;;;;2.58;2.38;;;;;;;15.50;51.95;101197.63;4985766;28;20400;-79
2023/06/15 01:51:12;;;;;;;4.57;2.67;;;;;;;15.47;52.19;101193.28;4988921;28;20073;-78
2023/06/15 01:53:39;;;;;;;5.53;3.47;;;;;;;15.47;52.73;101195.91;4992063;28;20486;-82
2023/06/15 01:56:05;;;;;;;4.13;3.45;;;;;;;15.47;52.32;101190.63;4986119;28;20046;-91
2023/06/15 01:58:32;;;;;;;4.20;3.00;;;;;;;15.42;52.86;101192.50;4984895;28;20046;-80
2023/06/15 02:00:58;;;;;;;3.78;3.28;;;;;;;15.39;52.39;101196.06;4984843;28;20057;-79
2023/06/15 02:03:25;;;;;;;6.57;2.88;;;;;;;15.38;52.83;101196.09;4986478;28;20054;-79
2023/06/15 02:05:51;;;;;;;4.05;3.03;;;;;;;15.32;53.13;101189.19;4987534;28;20039;-79
2023/06/15 02:08:18;;;;;;;3.60;3.17;;;;;;;15.34;53.07;101186.53;4982521;28;20051;-80
2023/06/15 02:10:44;;;;;;;6.22;3.40;;;;;;;15.32;53.21;101190.97;4983362;28;20054;-84
2023/06/15 02:13:14;;;;;;;4.07;3.00;;;;;;;15.32;53.35;101188.34;4986282;28;20046;-79
2023/06/15 02:15:41;;;;;;;7.05;3.30;;;;;;;15.33;53.12;101198.84;4978166;28;20133;-80
2023/06/15 02:18:12;;;;;;;3.67;3.33;;;;;;;15.31;53.38;101190.09;4985435;28;20042;-79
2023/06/15 02:20:46;;;;;;;3.80;2.67;;;;;;;15.31;53.43;101190.09;4985500;28;20550;-79
2023/06/15 02:23:13;;;;;;;4.05;2.63;;;;;;;15.26;53.35;101185.81;4982823;28;20046;-79
2023/06/15 02:25:39;;;;;;;4.05;2.80;;;;;;;15.24;53.78;101190.25;4964619;28;20054;-79
2023/06/15 02:28:06;;;;;;;2.85;2.60;;;;;;;15.26;53.77;101191.09;4982957;28;20043;-80
2023/06/15 02:30:33;;;;;;;10.25;3.58;;;;;;;15.27;53.64;101190.22;5005115;28;20043;-79
2023/06/15 02:33:00;;;;;;;4.93;2.95;;;;;;;15.26;53.85;101189.31;4985442;28;20046;-81
2023/06/15 02:35:27;;;;;;;5.38;3.10;;;;;;;15.25;53.80;101195.47;4985911;28;20042;-81
2023/06/15 02:37:53;;;;;;;4.10;3.67;;;;;;;15.23;54.30;101189.38;4987474;28;20057;-86
2023/06/15 02:40:20;;;;;;;3.63;2.65;;;;;;;15.22;54.04;101196.41;4982844;28;20046;-79
2023/06/15 02:42:46;;;;;;;10.07;3.53;;;;;;;15.19;54.44;101200.91;4969124;28;20041;-81
2023/06/15 02:45:13;;;;;;;5.10;3.03;;;;;;;15.16;54.50;101198.31;4989968;28;20587;-81
2023/06/15 02:47:39;;;;;;;9.55;3.28;;;;;;;15.17;54.66;101198.28;5002151;28;20050;-79
2023/06/15 02:50:07;;;;;;;3.58;3.28;;;;;;;15.16;54.30;101200.94;4981244;28;20036;-83
2023/06/15 02:52:36;;;;;;;4.78;2.85;;;;;;;15.16;53.98;101212.38;4969824;28;20144;-81
2023/06/15 02:55:04;;;;;;;3.33;2.80;;;;;;;15.13;54.67;101207.13;4988278;28;20088;-82
2023/06/15 02:57:31;;;;;;;5.38;2.88;;;;;;;15.11;54.72;101198.41;5002146;28;20049;-79
2023/06/15 02:59:58;;;;;;;3.58;3.28;;;;;;;15.08;54.92;101198.44;4972077;28;20050;-84
2023/06/15 03:02:25;;;;;;;4.55;3.03;;;;;;;15.11;54.80;101201.03;4981675;28;20047;-79
2023/06/15 03:04:51;;;;;;;2.75;2.55;;;;;;;15.10;54.60;101203.72;4981488;28;20039;-79
2023/06/15 03:07:22;;;;;;;5.25;2.42;;;;;;;15.08;55.06;101210.78;4983916;28;20042;-82
2023/06/15 03:09:52;;;;;;;4.38;3.22;;;;;;;15.13;54.79;101204.50;4985985;28;20058;-83
2023/06/15 03:12:20;;;;;;;3.60;2.97;;;;;;;15.18;55.07;101214.97;4979564;28;20740;-81
2023/06/15 03:14:50;;;;;;;4.80;2.45;;;;;;;15.20;54.91;101215.81;4977853;28;20149;-81
2023/06/15 03:17:18;;;;;;;3.83;3.35;;;;;;;15.21;55.01;101213.16;4980793;28;20058;-79
2023/06/15 03:19:46;;;;;;;3.40;2.90;;;;;;;15.25;54.92;101215.72;4988477;28;20148;-79
2023/06/15 03:22:13;;;;;;;3.70;3.35;;;;;;;15.25;55.17;101219.22;4983286;28;20043;-79
2023/06/15 03:24:41;;;;;;;3.08;2.75;;;;;;;15.32;55.02;101217.38;4987598;28;20061;-79
2023/06/15 03:27:10;;;;;;;5.22;3.45;;;;;;;15.36;54.64;101217.25;4986858;28;20548;-80
2023/06/15 03:29:37;;;;;;;4.07;2.78;;;;;;;15.37;54.60;101218.13;4985767;28;20669;-79
2023/06/15 03:32:08;;;;;;;5.72;3.20;;;;;;;15.37;54.45;101216.34;4983427;28;20138;-86
2023/06/15 03:34:36;;;;;;;6.85;3.17;;;;;;;15.39;54.33;101217.19;4984793;28;20043;-80
2023/06/15 03:37:03;;;;;;;6.18;3.20;;;;;;;15.38;54.10;101225.13;4983329;28;20053;-81
2023/06/15 03:39:30;;;;;;;4.38;3.15;;;;;;;15.36;54.74;101226.94;4954842;28;20050;-82
2023/06/15 03:41:57;;;;;;;2.78;2.55;;;;;;;15.34;54.80;101223.47;4981453;28;20069;-82
2023/06/15 03:44:23;;;;;;;3.83;2.53;;;;;;;15.34;54.61;101226.97;4981134;28;20053;-83
2023/06/15 03:46:50;;;;;;;4.57;2.90;;;;;;;15.37;54.63;101226.91;4987015;28;20042;-79
2023/06/15 03:49:16;;;;;;;9.07;4.18;;;;;;;15.41;54.41;101232.13;4983312;28;20529;-79
2023/06/15 03:51:43;;;;;;;8.23;3.08;;;;;;;15.43;54.47;101228.53;4998775;28;20042;-80
2023/06/15 03:54:09;;;;;;;5.68;2.88;;;;;;;15.48;54.18;101221.41;4986363;28;20054;-78
2023/06/15 03:56:36;;;;;;;3.42;3.13;;;;;;;15.53;53.93;101216.91;4977855;28;20065;-78
2023/06/15 03:59:02;;;;;;;6.60;3.60;;;;;;;15.59;53.68;101221.22;4981944;28;20046;-85
2023/06/15 04:01:29;;;;;;;6.53;2.80;;;;;;;15.59;53.67;101222.97;4979883;28;20057;-81
2023/06/15 04:03:55;;;;;;;4.00;3.20;;;;;;;15.61;53.86;101231.72;4981593;28;20478;-83
2023/06/15 04:06:23;;;;;;;3.10;2.80;;;;;;;15.64;53.38;101239.56;4968670;28;20054;-78
2023/06/15 04:08:49;;;;;;;4.53;3.05;;;;;;;15.67;53.33;101228.94;4978745;28;20049;-84
2023/06/15 04:11:16;;;;;;;6.93;3.47;;;;;;;15.73;53.45;101239.38;4984216;28;20050;-79
2023/06/15 04:13:42;;;;;;;6.15;3.58;;;;;;;15.79;53.17;101243.69;4979551;28;20053;-78
2023/06/15 04:16:10;;;;;;;3.03;2.70;;;;;;;15.82;53.18;101247.13;4978989;28;20133;-82
2023/06/15 04:18:37;;;;;;;5.93;3.00;;;;;;;15.87;53.02;101247.91;4977457;28;20043;-80
2023/06/15 04:21:04;;;;;;;6.43;3.33;;;;;;;15.90;52.81;101251.38;4944783;28;20045;-86
2023/06/15 04:23:31;;;;;;;4.30;3.30;;;;;;;15.89;52.74;101255.78;4929444;28;20514;-82
2023/06/15 04:26:00;;;;;;;8.35;3.42;;;;;;;15.88;52.40;101254.06;4956514;28;20070;-85
2023/06/15 04:28:27;;;;;;;5.03;3.40;;;;;;;15.91;52.27;101259.28;4949962;28;20126;-80
2023/06/15 04:31:08;;;;;;;7.03;3.17;;;;;;;16.01;52.23;101257.31;4962353;28;20047;-83
2023/06/15 04:33:36;;;;;;;6.25;3.45;;;;;;;16.12;51.75;101249.16;4969769;28;20121;-84
2023/06/15 04:36:03;;;;;;;6.82;3.05;;;;;;;16.17;51.52;101256.06;4954393;28;20746;-87
2023/06/15 04:38:30;;;;;;;8.20;3.17;;;;;;;16.16;51.68;101256.09;4968830;28;20051;-84
2023/06/15 04:40:57;;;;;;;4.35;4.00;;;;;;;16.16;51.61;101258.72;4933130;28;20046;-86
2023/06/15 04:43:24;;;;;;;6.07;2.90;;;;;;;16.19;52.02;101253.38;4969768;28;20503;-80
2023/06/15 04:45:50;;;;;;;5.65;3.58;;;;;;;16.25;51.52;101260.31;4951873;28;20066;-83
2023/06/15 04:48:18;;;;;;;3.53;3.05;;;;;;;16.32;51.52;101256.59;4950910;28;20090;-79
2023/06/15 04:50:48;;;;;;;5.22;3.25;;;;;;;16.39;51.57;101255.56;4950692;28;20173;-91
2023/06/15 04:53:18;;;;;;;4.80;3.30;;;;;;;16.44;50.97;101264.25;4948227;28;20047;-79
2023/06/15 04:55:44;;;;;;;4.03;2.95;;;;;;;16.49;51.01;101265.03;4949584;28;20055;-78
2023/06/15 04:58:12;;;;;;;5.07;3.38;;;;;;;16.48;51.05;101262.41;4934091;28;20047;-78
2023/06/15 05:00:38;;;;;;;3.97;2.83;;;;;;;16.39;50.92;101263.50;4947613;28;20449;-80
2023/06/15 05:03:05;;;;;;;8.43;3.00;;;;;;;16.28;51.21;101265.50;4934486;28;20138;-87
2023/06/15 05:05:34;;;;;;;4.63;3.35;;;;;;;16.21;51.26;101259.50;4935126;28;20039;-82
2023/06/15 05:08:00;;;;;;;4.82;2.80;;;;;;;16.14;51.71;101264.06;4951756;28;20043;-79
2023/06/15 05:10:27;;;;;;;6.68;4.55;;;;;;;16.13;51.66;101264.09;4967572;28;20647;-83
2023/06/15 05:12:53;;;;;;;6.05;2.95;;;;;;;16.14;51.87;101260.53;4948476;28;20036;-84
2023/06/15 05:15:20;;;;;;;6.25;3.58;;;;;;;16.16;52.88;101264.00;4948028;28;20450;-79
2023/06/15 05:17:46;;;;;;;5.50;3.53;;;;;;;16.20;52.38;101263.94;4949419;28;20062;-80
2023/06/15 05:20:13;;;;;;;2.67;2.47;;;;;;;16.22;52.53;101258.59;4981542;28;20058;-81
2023/06/15 05:22:40;;;;;;;5.13;3.53;;;;;;;16.21;52.48;101268.28;4999391;28;20438;-79
2023/06/15 05:25:07;;;;;;;5.75;3.78;;;;;;;16.29;52.59;101264.59;4987722;28;20042;-84
2023/06/15 05:27:35;;;;;;;3.75;2.92;;;;;;;16.37;52.18;101262.66;5002001;28;20042;-79
2023/06/15 05:30:02;;;;;;;4.65;2.90;;;;;;;16.47;51.37;101263.31;4972724;28;20043;-79
2023/06/15 05:32:29;;;;;;;5.75;3.38;;;;;;;16.57;51.47;101259.56;4986808;28;20038;-82
2023/06/15 05:34:55;;;;;;;3.25;3.00;;;;;;;16.70;51.73;101262.75;4988460;28;20046;-90
2023/06/15 05:37:22;;;;;;;4.50;3.65;;;;;;;16.71;51.79;101264.47;4971557;28;20382;-78
2023/06/15 05:39:49;;;;;;;3.67;3.33;;;;;;;16.66;53.21;101267.25;4986569;28;20069;-81
2023/06/15 05:42:15;;;;;;;3.85;2.75;;;;;;;16.64;52.94;101268.19;4976350;28;20074;-80
2023/06/15 05:44:42;;;;;;;3.90;3.00;;;;;;;16.63;53.16;101267.31;4988124;28;20058;-79
2023/06/15 05:47:09;;;;;;;5.22;3.33;;;;;;;16.64;53.20;101265.56;4965761;28;20039;-81
2023/06/15 05:49:35;;;;;;;3.50;3.20;;;;;;;16.65;53.32;101265.50;4989017;28;20077;-85
2023/06/15 05:52:01;;;;;;;5.70;4.13;;;;;;;16.66;53.39;101266.38;4988209;28;20054;-82
2023/06/15 05:54:28;;;;;;;4.22;3.30;;;;;;;16.69;53.69;101268.94;4983923;28;20474;-79
2023/06/15 05:56:56;;;;;;;8.05;3.95;;;;;;;16.76;54.11;101267.88;4987206;28;20050;-84
2023/06/15 05:59:23;;;;;;;8.18;3.38;;;;;;;16.82;53.78;101270.38;4982636;28;20073;-84
2023/06/15 06:01:49;;;;;;;4.60;3.55;;;;;;;16.87;53.28;101265.84;4979512;28;20097;-84
2023/06/15 06:04:16;;;;;;;8.18;3.30;;;;;;;16.91;51.96;101271.97;4983890;28;20050;-78
2023/06/15 06:06:42;;;;;;;6.45;3.97;;;;;;;16.96;51.69;101270.06;4981307;28;20043;-81
2023/06/15 06:09:09;;;;;;;5.82;3.67;;;;;;;17.00;51.74;101263.78;4979421;28;20058;-81
2023/06/15 06:11:37;;;;;;;5.20;3.50;;;;;;;17.06;51.25;101269.81;4987215;28;20148;-82
2023/06/15 06:14:04;;;;;;;9.55;4.00;;;;;;;17.13;51.74;101266.09;4974235;28;20046;-78
2023/06/15 06:16:30;;;;;;;7.97;3.20;;;;;;;17.21;51.26;101272.06;4972037;28;20141;-80
2023/06/15 06:18:57;;;;;;;4.07;3.17;;;;;;;17.27;51.00;101271.03;4980719;28;20170;-85
2023/06/15 06:21:23;;;;;;;9.90;3.42;;;;;;;17.33;50.19;101273.50;4963280;28;20050;-81
2023/06/15 06:23:50;;;;;;;7.63;3.58;;;;;;;17.37;49.86;101269.88;4982663;28;20053;-83
2023/06/15 06:26:16;;;;;;;4.22;3.55;;;;;;;17.43;49.73;101267.06;4954823;28;20049;-85
2023/06/15 06:28:43;;;;;;;5.18;3.10;;;;;;;17.46;49.24;101264.31;4967431;28;20137;-78
2023/06/15 06:31:09;;;;;;;8.70;3.85;;;;;;;17.57;49.26;101258.69;4970971;28;20050;-82
2023/06/15 06:33:37;;;;;;;3.80;3.10;;;;;;;17.69;49.22;101262.78;4969733;28;20049;-80
2023/06/15 06:36:08;;;;;;;6.90;3.13;;;;;;;17.76;48.86;101267.00;4969469;28;20054;-83
2023/06/15 06:38:35;;;;;;;5.90;3.45;;;;;;;17.80;48.72;101259.84;4967432;28;20058;-82
2023/06/15 06:41:01;;;;;;;4.47;3.53;;;;;;;17.81;48.80;101267.72;4973775;28;20125;-77
2023/06/15 06:43:28;;;;;;;4.97;3.00;;;;;;;17.87;48.80;101258.72;4962064;28;20125;-79
2023/06/15 06:45:55;;;;;;;5.10;3.40;;;;;;;18.06;47.79;101258.22;4974829;28;20057;-82
2023/06/15 06:48:21;;;;;;;4.80;3.00;;;;;;;18.19;47.29;101257.78;4975022;28;20077;-85
2023/06/15 06:50:48;;;;;;;5.18;3.00;;;;;;;18.31;46.72;101260.97;4986748;28;20054;-87
2023/06/15 06:53:14;;;;;;;5.70;3.05;;;;;;;18.40;46.32;101262.47;4970981;28;20046;-84
2023/06/15 06:55:42;;;;;;;3.83;2.85;;;;;;;18.48;45.97;101257.78;4990996;28;20038;-79
2023/06/15 06:58:09;;;;;;;6.50;2.92;;;;;;;18.58;45.99;101258.38;4958914;28;20050;-78
2023/06/15 07:00:35;;;;;;;5.15;2.65;;;;;;;18.66;45.42;101258.97;4956974;28;20373;-82
2023/06/15 07:03:02;;;;;;;5.22;3.42;;;;;;;18.71;45.13;101259.69;4950694;28;20126;-79
2023/06/15 07:05:28;;;;;;;5.43;3.50;;;;;;;18.73;43.82;101268.44;4970658;28;20049;-89
2023/06/15 07:07:55;;;;;;;4.32;2.83;;;;;;;18.77;43.70;101266.56;4968430;28;20049;-89
2023/06/15 07:10:21;;;;;;;4.28;2.53;;;;;;;18.82;44.02;101265.47;4968981;28;20152;-79
2023/06/15 07:12:48;;;;;;;4.07;2.78;;;;;;;18.93;43.53;101267.81;4965926;28;20092;-83
2023/06/15 07:15:14;;;;;;;7.13;2.83;;;;;;;19.07;43.32;101269.13;4966870;28;20034;-77
2023/06/15 07:17:41;;;;;;;4.75;2.00;;;;;;;19.09;43.49;101265.50;4965346;28;20070;-78
2023/06/15 07:20:07;;;;;;;2.70;2.50;;;;;;;19.21;43.97;101258.88;4970475;28;20062;-79
2023/06/15 07:22:35;;;;;;;7.80;2.95;;;;;;;19.46;43.64;101258.88;4960986;28;20050;-81
2023/06/15 07:25:01;;;;;;;4.47;2.90;;;;;;;19.80;42.84;101256.75;4975731;28;20794;-79
2023/06/15 07:27:28;;;;;;;5.80;2.65;;;;;;;20.29;41.63;101259.31;4972329;28;20046;-81
2023/06/15 07:29:55;;;;;;;3.67;2.95;;;;;;;20.88;40.93;101256.94;4973353;28;20045;-78
2023/06/15 07:32:21;;;;;;;5.22;2.17;;;;;;;21.62;39.66;101257.25;4956359;28;20050;-83
2023/06/15 07:34:47;;;;;;;5.47;2.22;;;;;;;22.24;38.37;101253.47;4975474;28;20053;-79
2023/06/15 07:37:14;;;;;;;3.90;2.78;;;;;;;22.82;37.25;101248.91;4969544;28;20374;-78
2023/06/15 07:39:40;;;;;;;5.07;2.83;;;;;;;23.21;36.36;101253.16;4971686;28;20046;-83
2023/06/15 07:42:07;;;;;;;3.95;2.17;;;;;;;23.56;36.23;101251.25;4966236;28;20466;-78
2023/06/15 07:44:35;;;;;;;2.15;1.95;;;;;;;24.07;35.54;101243.16;4972342;28;20366;-80
2023/06/15 07:47:02;;;;;;;7.95;2.95;;;;;;;24.52;34.42;101250.44;4968575;28;20101;-84
2023/06/15 07:49:29;;;;;;;5.05;3.17;;;;;;;24.84;32.84;101250.38;4952973;28;20050;-81
2023/06/15 07:51:55;;;;;;;3.45;2.45;;;;;;;25.17;33.04;101254.66;4951546;28;20125;-84
2023/06/15 07:54:22;;;;;;;6.57;2.83;;;;;;;25.62;32.62;101254.59;4956970;28;20111;-84
2023/06/15 07:56:48;;;;;;;6.97;3.10;;;;;;;25.78;31.75;101257.19;4945982;28;20057;-79
2023/06/15 07:59:15;;;;;;;2.80;2.10;;;;;;;26.22;30.99;101248.13;4968700;28;20056;-81
2023/06/15 08:01:41;;;;;;;2.97;2.28;;;;;;;26.57;30.58;101245.75;4963020;28;20034;-81
2023/06/15 08:04:09;;;;;;;6.40;2.55;;;;;;;27.09;29.49;101243.16;4969789;28;20053;-79
2023/06/15 08:06:35;;;;;;;5.60;2.28;;;;;;;27.39;28.99;101236.63;4969797;28;20719;-83
2023/06/15 08:09:02;;;;;;;3.67;2.40;;;;;;;27.72;28.49;101244.13;4970234;28;20398;-81
2023/06/15 08:11:28;;;;;;;8.20;2.95;;;;;;;28.04;27.59;101240.09;4972548;28;20097;-87
2023/06/15 08:13:55;;;;;;;4.00;2.65;;;;;;;28.13;28.04;101246.63;4989783;28;20042;-88
2023/06/15 08:16:22;;;;;;;5.80;2.75;;;;;;;28.69;26.91;101248.75;4989358;28;20046;-82
2023/06/15 08:18:48;;;;;;;5.55;2.83;;;;;;;29.41;25.88;101242.28;4953188;28;20061;-84
2023/06/15 08:21:17;;;;;;;6.28;2.70;;;;;;;29.73;26.29;101246.94;4996938;28;20053;-82
2023/06/15 08:23:43;;;;;;;3.47;2.65;;;;;;;30.08;25.48;101247.75;4990887;28;20719;-82
2023/06/15 08:26:10;;;;;;;5.95;2.40;;;;;;;30.42;24.73;101239.56;4969540;28;20046;-79
2023/06/15 08:28:37;;;;;;;6.30;2.72;;;;;;;30.82;24.15;101236.16;4986595;28;20057;-79
2023/06/15 08:31:04;;;;;;;5.60;2.78;;;;;;;30.83;24.17;101236.06;4985607;28;20042;-80
2023/06/15 08:33:31;;;;;;;3.78;2.58;;;;;;;30.95;23.99;101233.25;4966452;28;20038;-80
2023/06/15 08:35:57;;;;;;;7.03;2.63;;;;;;;30.37;23.87;101234.53;4973246;28;20093;-82
2023/06/15 08:38:24;;;;;;;2.72;2.50;;;;;;;30.36;23.38;101230.97;5001717;28;20046;-84
2023/06/15 08:40:51;;;;;;;8.00;2.65;;;;;;;30.16;23.13;101240.72;4984904;28;20046;-80
2023/06/15 08:43:18;;;;;;;3.13;1.83;;;;;;;30.57;23.10;101232.00;4987666;28;20102;-80
2023/06/15 08:45:49;;;;;;;4.15;2.30;;;;;;;31.26;22.10;101236.03;4984764;28;20556;-80
2023/06/15 08:48:18;;;;;;;2.47;2.15;;;;;;;31.94;21.35;101233.59;4983801;28;20633;-80
2023/06/15 08:50:45;;;;;;;1.95;1.85;;;;;;;31.83;21.23;101237.25;4981318;28;20046;-83
2023/06/15 08:53:14;;;;;;;5.35;2.75;;;;;;;31.47;22.00;101239.56;4970254;28;20058;-81
2023/06/15 08:55:41;;;;;;;8.57;2.47;;;;;;;32.02;21.84;101237.44;4987505;28;20058;-85
2023/06/15 08:58:08;;;;;;;3.05;2.25;;;;;;;31.90;21.36;101234.88;4982967;28;20653;-86
2023/06/15 09:00:35;;;;;;;4.75;3.42;;;;;;;31.15;21.92;101245.09;5004288;28;20050;-80
2023/06/15 09:03:05;;;;;;;2.60;2.40;;;;;;;31.17;21.54;101237.69;4983255;28;20205;-81
2023/06/15 09:05:32;;;;;;;4.07;2.72;;;;;;;30.27;21.73;101236.28;4982843;28;20050;-81
2023/06/15 09:07:59;;;;;;;3.80;2.30;;;;;;;30.42;22.19;101231.44;4987275;28;20046;-80
2023/06/15 09:10:27;;;;;;;4.13;2.30;;;;;;;31.11;21.77;101233.69;4986656;28;20225;-79
2023/06/15 09:12:58;;;;;;;2.70;2.42;;;;;;;29.77;22.27;101239.44;4987457;28;20050;-80
2023/06/15 09:15:28;;;;;;;3.47;2.10;;;;;;;29.77;22.43;101225.97;4985794;28;20782;-80
2023/06/15 09:18:00;;;;;;;4.28;2.33;;;;;;;31.10;21.41;101223.00;4972406;28;20141;-87
2023/06/15 09:20:31;;;;;;;2.55;2.35;;;;;;;32.30;20.69;101225.81;4988724;28;20093;-80
2023/06/15 09:22:59;;;;;;;3.63;2.50;;;;;;;33.56;19.42;101225.72;4988688;28;20066;-81
2023/06/15 09:25:26;;;;;;;4.70;1.88;;;;;;;34.24;18.70;101223.59;5000222;28;20054;-82
2023/06/15 09:28:01;;;;;;;3.63;2.20;;;;;;;33.61;19.10;101226.13;4987813;28;20041;-82
2023/06/15 09:30:33;;;;;;;4.43;2.28;;;;;;;32.69;18.34;101229.50;4964382;28;20043;-82
2023/06/15 09:33:20;;;;;;;3.95;2.17;;;;;;;32.97;18.59;101228.63;4987555;28;20165;-83
2023/06/15 09:36:04;;;;;;;3.33;1.80;;;;;;;33.97;17.57;101228.94;4969376;28;20065;-81
2023/06/15 09:38:42;;;;;;;5.00;1.95;;;;;;;34.39;17.36;101215.75;4988958;28;20049;-81
2023/06/15 09:41:10;;;;;;;2.47;2.17;;;;;;;34.55;17.66;101215.91;4987903;28;20058;-83
2023/06/15 09:43:41;;;;;;;6.43;2.67;;;;;;;34.70;17.40;101212.63;4996745;28;20545;-83
2023/06/15 09:46:16;;;;;;;2.28;2.10;;;;;;;35.27;17.17;101214.84;4971599;28;20347;-84
2023/06/15 09:48:47;;;;;;;3.88;2.28;;;;;;;36.26;16.73;101217.91;4988034;28;20401;-82
2023/06/15 09:51:16;;;;;;;5.18;2.28;;;;;;;35.99;16.74;101209.00;4986166;28;20034;-82
2023/06/15 09:53:44;;;;;;;5.50;2.13;;;;;;;36.66;16.32;101199.88;4976526;28;20038;-83
2023/06/15 09:56:11;;;;;;;2.60;2.30;;;;;;;37.14;15.74;101205.38;4994020;28;20038;-80
2023/06/15 09:58:38;;;;;;;2.72;2.03;;;;;;;37.27;15.10;101206.72;4969362;28;20038;-82
2023/06/15 10:01:06;;;;;;;3.17;2.60;;;;;;;36.22;16.08;101202.94;4972391;28;20485;-81
2023/06/15 10:03:33;;;;;;;5.82;2.90;;;;;;;36.51;15.76;101199.69;4983067;28;20110;-81
2023/06/15 10:06:08;;;;;;;14.43;4.03;;;;;;;36.85;15.80;101206.00;4984500;28;20047;-81
2023/06/15 10:08:39;;;;;;;5.20;2.55;;;;;;;36.55;15.33;101198.31;4984531;28;20152;-82
2023/06/15 10:11:09;;;;;;;2.75;2.47;;;;;;;35.50;16.18;101207.00;4989225;28;20038;-81
2023/06/15 10:14:05;;;;;;;2.97;2.50;;;;;;;35.97;15.09;101196.56;4990690;28;20429;-83
2023/06/15 10:16:32;;;;;;;2.40;2.20;;;;;;;35.83;15.92;101196.19;4973696;28;20057;-83
2023/06/15 10:19:04;;;;;;;5.32;2.83;;;;;;;36.65;15.26;101187.25;4969911;28;20560;-81
2023/06/15 10:21:36;;;;;;;5.03;3.25;;;;;;;36.46;15.35;101187.63;4988648;28;20429;-81
2023/06/15 10:24:11;;;;;;;7.25;2.60;;;;;;;36.16;15.90;101195.41;4989481;28;20069;-83
2023/06/15 10:26:42;;;;;;;3.88;2.38;;;;;;;36.89;15.37;101189.09;4985067;28;20077;-81
2023/06/15 10:29:26;;;;;;;3.13;2.60;;;;;;;37.53;15.07;101188.19;4986857;28;20047;-83
2023/06/15 10:32:07;;;;;;;2.25;2.00;;;;;;;37.71;14.42;101187.91;4988272;28;20042;-82
2023/06/15 10:34:49;;;;;;;3.28;2.72;;;;;;;35.69;15.71;101180.50;4986416;28;20042;-86
2023/06/15 10:37:47;;;;;;;2.88;2.45;;;;;;;32.76;17.99;101179.16;4982927;28;20054;-87
2023/06/15 10:40:29;;;;;;;3.42;3.00;;;;;;;31.45;18.92;101176.59;4980161;28;20057;-80
2023/06/15 10:42:57;;;;;;;;;;;;;;;30.39;19.74;101188.47;4969995;28;20044;-81
2023/06/15 10:45:32;;;;;;;3.75;2.45;;;;;;;30.93;19.72;101178.50;4972619;28;19922;-81
2023/06/15 10:48:01;;;;;;;2.78;2.58;;;;;;;33.03;18.12;101180.22;5001977;28;20048;-81
2023/06/15 10:50:37;;;;;;;2.33;2.13;;;;;;;35.64;16.45;101178.25;4986797;28;20140;-83
2023/06/15 10:53:04;;;;;;;4.45;3.05;;;;;;;37.61;15.15;101176.34;4987755;28;20050;-79
2023/06/15 10:55:32;;;;;;;3.67;2.65;;;;;;;39.08;14.31;101169.00;4987743;28;20045;-80
2023/06/15 10:58:16;;;;;;;2.65;2.42;;;;;;;39.15;13.52;101172.66;4972237;28;20540;-81
2023/06/15 11:00:51;;;;;;;3.20;2.80;;;;;;;39.57;13.95;101170.25;4985226;28;20104;-80
2023/06/15 11:03:27;;;;;;;3.65;2.13;;;;;;;39.34;13.43;101172.09;4982570;28;20053;-82
2023/06/15 11:06:07;;;;;;;5.78;2.50;;;;;;;38.65;14.38;101175.09;5003516;28;20045;-81
2023/06/15 11:08:49;;;;;;;2.95;2.60;;;;;;;36.93;15.03;101175.94;4988198;28;20093;-80
2023/06/15 11:11:27;;;;;;;4.15;2.45;;;;;;;35.13;16.49;101177.38;4989011;28;20421;-85
2023/06/15 11:14:05;;;;;;;2.58;2.47;;;;;;;33.88;17.78;101174.69;4987527;28;20250;-81
2023/06/15 11:16:39;;;;;;;3.58;2.90;;;;;;;33.19;18.28;101174.16;4988870;28;20564;-84
2023/06/15 11:19:11;;;;;;;3.00;2.53;;;;;;;32.32;19.09;101175.06;4984637;28;20488;-85
2023/06/15 11:21:44;;;;;;;9.13;3.17;;;;;;;31.23;19.96;101168.69;4989291;28;20033;-80
2023/06/15 11:24:13;;;;;;;3.67;2.83;;;;;;;30.44;20.69;101176.31;4983564;28;20039;-80
2023/06/15 11:26:41;;;;;;;6.78;3.00;;;;;;;30.23;21.08;101172.72;4979953;28;20077;-84
2023/06/15 11:29:09;;;;;;;4.18;2.47;;;;;;;29.99;21.46;101169.25;4986997;28;20042;-81
2023/06/15 11:31:36;;;;;;;6.75;3.33;;;;;;;30.16;21.21;101169.69;4967253;28;20057;-79